createdAt,value
2023-02-26T00:01:33.435Z,4.57
2023-02-26T00:04:04.031Z,4.47
2023-02-26T00:06:34.367Z,4.20
2023-02-26T00:09:01.500Z,3.90
2023-02-26T00:11:28.840Z,3.80
2023-02-26T00:13:56.492Z,4.17
2023-02-26T00:16:29.183Z,3.70
2023-02-26T00:18:59.130Z,3.40
2023-02-26T00:21:27.699Z,3.60
2023-02-26T00:23:55.462Z,3.63
2023-02-26T00:26:26.007Z,3.67
2023-02-26T00:28:53.846Z,3.97
2023-02-26T00:31:24.977Z,3.37
2023-02-26T00:33:56.081Z,3.57
2023-02-26T00:37:04.947Z,3.57
2023-02-26T00:39:44.009Z,5.00
2023-02-26T00:42:11.647Z,3.10
2023-02-26T00:44:39.157Z,3.03
2023-02-26T00:47:23.406Z,3.27
2023-02-26T00:50:12.023Z,3.30
2023-02-26T00:53:04.662Z,3.23
2023-02-26T00:55:32.031Z,3.03
2023-02-26T00:57:58.981Z,3.50
2023-02-26T01:00:26.118Z,3.20
2023-02-26T01:02:53.264Z,3.10
2023-02-26T01:05:21.003Z,3.27
2023-02-26T01:08:11.200Z,2.60
2023-02-26T01:10:38.413Z,2.53
2023-02-26T01:13:07.768Z,2.87
2023-02-26T01:15:35.574Z,3.30
2023-02-26T01:18:35.070Z,2.47
2023-02-26T01:21:05.350Z,3.00
2023-02-26T01:23:39.660Z,2.40
2023-02-26T01:26:13.465Z,2.80
2023-02-26T01:28:40.628Z,3.50
2023-02-26T01:31:38.929Z,3.13
2023-02-26T01:34:19.532Z,2.50
2023-02-26T01:37:14.036Z,2.80
2023-02-26T01:39:54.851Z,2.57
2023-02-26T01:42:31.188Z,2.03
2023-02-26T01:45:13.290Z,2.07
2023-02-26T01:47:53.969Z,2.00
2023-02-26T01:50:25.920Z,2.50
2023-02-26T01:53:01.860Z,2.20
2023-02-26T01:55:29.419Z,2.20
2023-02-26T01:57:59.172Z,2.57
2023-02-26T02:00:25.996Z,2.00
2023-02-26T02:02:53.006Z,2.00
2023-02-26T02:05:31.914Z,2.10
2023-02-26T02:08:01.147Z,2.00
2023-02-26T02:10:29.438Z,2.13
2023-02-26T02:13:24.237Z,2.10
2023-02-26T02:16:08.667Z,2.00
2023-02-26T02:19:03.685Z,1.93
2023-02-26T02:21:49.776Z,1.67
2023-02-26T02:24:28.065Z,2.30
2023-02-26T02:27:08.378Z,1.80
2023-02-26T02:29:53.832Z,2.00
2023-02-26T02:32:34.466Z,2.37
2023-02-26T02:35:11.748Z,1.67
2023-02-26T02:37:57.284Z,1.80
2023-02-26T02:40:37.502Z,1.97
2023-02-26T02:43:10.859Z,2.17
2023-02-26T02:45:59.429Z,2.00
2023-02-26T02:49:04.299Z,1.77
2023-02-26T02:51:51.228Z,1.47
2023-02-26T02:54:25.721Z,2.50
2023-02-26T02:56:58.531Z,1.50
2023-02-26T02:59:45.096Z,2.00
2023-02-26T03:02:26.832Z,1.83
2023-02-26T03:04:54.851Z,1.77
2023-02-26T03:07:21.881Z,1.97
2023-02-26T03:09:49.227Z,1.90
2023-02-26T03:12:16.233Z,1.73
2023-02-26T03:14:43.720Z,1.80
2023-02-26T03:17:52.438Z,1.80
2023-02-26T03:20:24.818Z,2.30
2023-02-26T03:23:19.480Z,2.13
2023-02-26T03:25:58.849Z,1.80
2023-02-26T03:29:07.818Z,1.80
2023-02-26T03:31:41.990Z,2.23
2023-02-26T03:34:17.728Z,1.83
2023-02-26T03:36:53.679Z,1.77
2023-02-26T03:39:33.053Z,1.70
2023-02-26T03:42:05.110Z,1.60
2023-02-26T03:44:39.474Z,1.87
2023-02-26T03:47:10.477Z,2.10
2023-02-26T03:50:00.770Z,1.70
2023-02-26T03:52:32.653Z,1.83
2023-02-26T03:55:13.534Z,1.63
2023-02-26T03:57:40.856Z,1.93
2023-02-26T04:00:10.581Z,1.40
2023-02-26T04:02:40.842Z,2.97
2023-02-26T04:05:15.283Z,1.93
2023-02-26T04:07:42.501Z,1.70
2023-02-26T04:10:11.311Z,1.80
2023-02-26T04:12:38.416Z,1.60
2023-02-26T04:15:09.197Z,1.70
2023-02-26T04:17:36.230Z,1.80
2023-02-26T04:20:12.953Z,1.70
2023-02-26T04:22:39.801Z,1.80
2023-02-26T04:25:08.780Z,1.80
2023-02-26T04:27:45.039Z,1.93
2023-02-26T04:30:25.329Z,1.70
2023-02-26T04:32:54.268Z,1.50
2023-02-26T04:35:21.176Z,1.47
2023-02-26T04:37:48.192Z,1.50
2023-02-26T04:40:15.132Z,1.70
2023-02-26T04:42:42.480Z,1.50
2023-02-26T04:45:09.727Z,1.50
2023-02-26T04:47:37.246Z,1.77
2023-02-26T04:50:04.643Z,2.17
2023-02-26T04:52:32.612Z,1.70
2023-02-26T04:54:59.547Z,1.47
2023-02-26T04:57:27.006Z,1.90
2023-02-26T04:59:53.965Z,1.50
2023-02-26T05:02:21.006Z,1.33
2023-02-26T05:04:48.254Z,1.70
2023-02-26T05:07:15.374Z,1.30
2023-02-26T05:09:42.562Z,1.70
2023-02-26T05:12:10.610Z,1.80
2023-02-26T05:14:37.470Z,1.90
2023-02-26T05:17:07.780Z,1.97
2023-02-26T05:19:35.063Z,1.60
2023-02-26T05:22:02.916Z,1.50
2023-02-26T05:24:30.889Z,1.50
2023-02-26T05:26:57.746Z,1.40
2023-02-26T05:29:24.761Z,1.57
2023-02-26T05:31:51.904Z,1.50
2023-02-26T05:34:18.874Z,1.60
2023-02-26T05:36:45.799Z,1.70
2023-02-26T05:39:12.932Z,1.77
2023-02-26T05:41:39.895Z,1.73
2023-02-26T05:44:08.299Z,1.57
2023-02-26T05:46:35.325Z,1.50
2023-02-26T05:49:02.294Z,1.30
2023-02-26T05:51:31.287Z,1.50
2023-02-26T05:53:58.208Z,1.83
2023-02-26T05:56:33.472Z,1.53
2023-02-26T05:59:03.790Z,1.60
2023-02-26T06:01:31.050Z,1.70
2023-02-26T06:04:16.397Z,1.50
2023-02-26T06:06:44.422Z,1.40
2023-02-26T06:09:13.670Z,1.30
2023-02-26T06:11:41.643Z,1.77
2023-02-26T06:14:23.097Z,1.60
2023-02-26T06:16:51.240Z,1.30
2023-02-26T06:19:22.563Z,1.50
2023-02-26T06:21:50.924Z,1.70
2023-02-26T06:24:27.853Z,1.80
2023-02-26T06:26:58.884Z,1.50
2023-02-26T06:29:25.893Z,1.40
2023-02-26T06:31:56.771Z,1.63
2023-02-26T06:34:24.003Z,1.77
2023-02-26T06:36:51.155Z,1.67
2023-02-26T06:39:19.277Z,1.30
2023-02-26T06:41:46.381Z,1.43
2023-02-26T06:44:13.552Z,1.83
2023-02-26T06:46:45.320Z,1.90
2023-02-26T06:49:14.941Z,1.97
2023-02-26T06:51:42.176Z,1.83
2023-02-26T06:54:11.495Z,2.00
2023-02-26T06:56:39.237Z,1.57
2023-02-26T06:59:37.210Z,2.40
2023-02-26T07:02:09.719Z,1.50
2023-02-26T07:04:41.221Z,1.70
2023-02-26T07:07:15.448Z,1.70
2023-02-26T07:09:55.914Z,1.77
2023-02-26T07:12:37.020Z,1.87
2023-02-26T07:15:08.216Z,1.63
2023-02-26T07:17:55.342Z,1.40
2023-02-26T07:20:25.113Z,1.37
2023-02-26T07:22:55.256Z,1.40
2023-02-26T07:25:29.560Z,1.40
2023-02-26T07:28:02.959Z,1.70
2023-02-26T07:30:35.218Z,1.63
2023-02-26T07:33:06.707Z,1.50
2023-02-26T07:35:37.020Z,1.50
2023-02-26T07:38:06.710Z,1.47
2023-02-26T07:40:35.053Z,1.40
2023-02-26T07:43:03.078Z,1.37
2023-02-26T07:45:30.108Z,1.70
2023-02-26T07:48:04.983Z,1.70
2023-02-26T07:50:33.833Z,2.00
2023-02-26T07:53:06.766Z,1.80
2023-02-26T07:55:33.672Z,3.17
2023-02-26T07:58:02.635Z,1.80
2023-02-26T08:00:29.734Z,1.93
2023-02-26T08:02:56.674Z,1.67
2023-02-26T08:05:23.724Z,1.73
2023-02-26T08:07:50.735Z,1.93
2023-02-26T08:10:20.957Z,1.43
2023-02-26T08:12:50.561Z,1.63
2023-02-26T08:15:18.693Z,1.57
2023-02-26T08:17:49.960Z,1.77
2023-02-26T08:20:17.021Z,1.60
2023-02-26T08:22:43.976Z,1.57
2023-02-26T08:25:13.143Z,1.27
2023-02-26T08:27:41.248Z,1.60
2023-02-26T08:30:11.402Z,2.10
2023-02-26T08:32:42.692Z,2.00
2023-02-26T08:35:12.827Z,1.57
2023-02-26T08:37:40.731Z,1.70
2023-02-26T08:40:09.820Z,1.90
2023-02-26T08:42:37.232Z,1.60
2023-02-26T08:45:04.825Z,1.87
2023-02-26T08:47:39.366Z,1.63
2023-02-26T08:50:07.260Z,1.40
2023-02-26T08:52:34.229Z,1.60
2023-02-26T08:55:04.393Z,1.40
2023-02-26T08:57:31.607Z,1.33
2023-02-26T08:59:59.600Z,1.40
2023-02-26T09:02:28.610Z,1.47
2023-02-26T09:04:55.546Z,1.20
2023-02-26T09:07:22.650Z,1.53
2023-02-26T09:09:49.527Z,1.43
2023-02-26T09:12:17.076Z,1.40
2023-02-26T09:14:43.825Z,1.23
2023-02-26T09:17:11.705Z,1.27
2023-02-26T09:19:45.377Z,1.20
2023-02-26T09:22:13.552Z,1.37
2023-02-26T09:24:43.515Z,1.40
2023-02-26T09:27:10.505Z,1.43
2023-02-26T09:29:37.884Z,1.37
2023-02-26T09:32:08.764Z,1.40
2023-02-26T09:34:37.267Z,1.70
2023-02-26T09:37:06.079Z,1.17
2023-02-26T09:39:34.273Z,1.43
2023-02-26T09:42:18.219Z,1.30
2023-02-26T09:44:45.724Z,1.33
2023-02-26T09:47:24.199Z,1.27
2023-02-26T09:49:58.812Z,1.30
2023-02-26T09:52:46.600Z,1.57
2023-02-26T09:55:17.169Z,1.20
2023-02-26T09:57:47.290Z,1.50
2023-02-26T10:00:33.140Z,1.20
2023-02-26T10:03:17.214Z,1.20
2023-02-26T10:06:08.313Z,1.20
2023-02-26T10:09:01.981Z,1.27
2023-02-26T10:11:50.522Z,1.33
2023-02-26T10:14:27.170Z,1.40
2023-02-26T10:17:00.979Z,1.30
2023-02-26T10:19:34.096Z,1.17
2023-02-26T10:22:12.192Z,1.10
2023-02-26T10:24:48.873Z,1.20
2023-02-26T10:27:32.771Z,1.50
2023-02-26T10:30:08.474Z,1.80
2023-02-26T10:32:48.806Z,1.10
2023-02-26T10:35:21.488Z,1.30
2023-02-26T10:38:01.553Z,1.43
2023-02-26T10:41:00.034Z,1.13
2023-02-26T10:43:40.016Z,1.57
2023-02-26T10:46:32.848Z,1.67
2023-02-26T10:49:38.380Z,1.00
2023-02-26T10:52:36.441Z,1.00
2023-02-26T10:55:23.169Z,1.40
2023-02-26T10:58:05.341Z,1.10
2023-02-26T11:00:35.384Z,1.60
2023-02-26T11:03:05.912Z,1.77
2023-02-26T11:05:37.487Z,1.37
2023-02-26T11:08:19.680Z,1.00
2023-02-26T11:10:59.210Z,1.10
2023-02-26T11:13:30.225Z,1.30
2023-02-26T11:16:19.104Z,1.10
2023-02-26T11:18:55.182Z,1.77
2023-02-26T11:21:31.303Z,0.97
2023-02-26T11:24:19.805Z,1.53
2023-02-26T11:26:55.017Z,0.80
2023-02-26T11:29:27.934Z,1.07
2023-02-26T11:31:58.229Z,1.37
2023-02-26T11:34:26.544Z,1.07
2023-02-26T11:37:00.382Z,1.10
2023-02-26T11:39:34.109Z,0.90
2023-02-26T11:42:02.898Z,1.10
2023-02-26T11:44:46.922Z,1.20
2023-02-26T11:47:21.439Z,1.10
2023-02-26T11:50:00.916Z,1.10
2023-02-26T11:52:35.941Z,1.20
2023-02-26T11:55:20.185Z,0.70
2023-02-26T11:57:54.692Z,0.97
2023-02-26T12:00:37.011Z,0.80
2023-02-26T12:03:22.722Z,0.87
2023-02-26T12:05:53.205Z,1.20
2023-02-26T12:08:40.301Z,1.17
2023-02-26T12:11:18.886Z,1.23
2023-02-26T12:14:30.484Z,0.90
2023-02-26T12:17:09.664Z,1.20
2023-02-26T12:20:19.286Z,0.80
2023-02-26T12:22:56.182Z,1.10
2023-02-26T12:25:52.281Z,0.97
2023-02-26T12:28:40.043Z,1.10
2023-02-26T12:31:15.864Z,0.80
2023-02-26T12:33:57.461Z,0.87
2023-02-26T12:36:49.811Z,0.70
2023-02-26T12:39:35.619Z,1.10
2023-02-26T12:42:14.784Z,1.47
2023-02-26T12:45:06.104Z,1.17
2023-02-26T12:47:55.826Z,1.00
2023-02-26T12:50:41.439Z,1.00
2023-02-26T12:53:31.385Z,1.53
2023-02-26T12:56:22.758Z,4.27
2023-02-26T12:59:10.912Z,4.63
2023-02-26T13:01:45.107Z,1.07
2023-02-26T13:04:27.128Z,1.37
2023-02-26T13:07:22.962Z,0.93
2023-02-26T13:10:15.843Z,1.00
2023-02-26T13:13:03.721Z,0.73
2023-02-26T13:15:42.108Z,1.30
2023-02-26T13:18:32.529Z,1.00
2023-02-26T13:21:01.666Z,1.30
2023-02-26T13:23:41.300Z,0.80
2023-02-26T13:26:11.186Z,0.70
2023-02-26T13:28:40.508Z,0.80
2023-02-26T13:31:27.385Z,0.93
2023-02-26T13:33:57.294Z,1.63
2023-02-26T13:36:26.929Z,0.90
2023-02-26T13:39:24.932Z,0.90
2023-02-26T13:42:18.972Z,0.80
2023-02-26T13:44:53.087Z,0.80
2023-02-26T13:47:42.797Z,0.90
2023-02-26T13:50:25.218Z,0.80
2023-02-26T13:52:56.618Z,0.90
2023-02-26T13:55:44.094Z,0.90
2023-02-26T13:58:24.102Z,0.70
2023-02-26T14:01:08.470Z,0.90
2023-02-26T14:04:14.079Z,0.93
2023-02-26T14:06:48.698Z,0.90
2023-02-26T14:09:26.397Z,0.80
2023-02-26T14:12:01.354Z,0.70
2023-02-26T14:14:43.005Z,0.80
2023-02-26T14:17:09.823Z,0.80
2023-02-26T14:19:51.629Z,0.80
2023-02-26T14:22:41.922Z,0.80
2023-02-26T14:25:12.100Z,0.70
2023-02-26T14:27:42.018Z,0.80
2023-02-26T14:30:09.006Z,0.97
2023-02-26T14:32:45.998Z,1.10
2023-02-26T14:35:18.587Z,1.00
2023-02-26T14:37:58.520Z,1.00
2023-02-26T14:40:26.282Z,1.10
2023-02-26T14:42:58.094Z,1.00
2023-02-26T14:45:39.025Z,0.97
2023-02-26T14:48:18.865Z,1.00
2023-02-26T14:51:04.021Z,1.17
2023-02-26T14:53:42.650Z,1.10
2023-02-26T14:56:38.574Z,1.07
2023-02-26T14:59:20.858Z,0.73
2023-02-26T15:01:59.784Z,0.80
2023-02-26T15:04:44.823Z,0.70
2023-02-26T15:07:28.312Z,0.90
2023-02-26T15:10:32.919Z,0.80
2023-02-26T15:13:09.014Z,1.40
2023-02-26T15:15:56.527Z,0.90
2023-02-26T15:18:49.369Z,0.70
2023-02-26T15:21:24.585Z,0.70
2023-02-26T15:23:54.580Z,1.00
2023-02-26T15:26:28.675Z,1.00
2023-02-26T15:28:57.358Z,0.90
2023-02-26T15:31:41.039Z,0.87
2023-02-26T15:34:12.674Z,0.80
2023-02-26T15:36:45.243Z,1.20
2023-02-26T15:39:16.198Z,0.70
2023-02-26T15:41:43.879Z,0.97
2023-02-26T15:44:16.310Z,0.90
2023-02-26T15:46:48.040Z,0.93
2023-02-26T15:49:24.750Z,1.20
2023-02-26T15:51:53.352Z,1.00
2023-02-26T15:54:23.130Z,1.00
2023-02-26T15:56:50.632Z,1.33
2023-02-26T15:59:25.614Z,1.00
2023-02-26T16:01:52.539Z,1.00
2023-02-26T16:04:20.923Z,0.97
2023-02-26T16:06:58.264Z,1.00
2023-02-26T16:09:39.812Z,0.90
2023-02-26T16:12:16.317Z,1.10
2023-02-26T16:14:50.503Z,0.80
2023-02-26T16:17:30.597Z,1.00
2023-02-26T16:20:00.237Z,1.40
2023-02-26T16:22:39.102Z,1.00
2023-02-26T16:25:06.019Z,1.00
2023-02-26T16:27:33.962Z,1.10
2023-02-26T16:30:02.379Z,1.30
2023-02-26T16:32:33.572Z,1.30
2023-02-26T16:35:08.109Z,1.23
2023-02-26T16:37:38.847Z,1.40
2023-02-26T16:40:11.695Z,1.57
2023-02-26T16:42:46.020Z,1.33
2023-02-26T16:45:36.897Z,1.70
2023-02-26T16:48:16.109Z,1.17
2023-02-26T16:50:43.086Z,1.33
2023-02-26T16:53:17.266Z,1.10
2023-02-26T16:55:51.410Z,1.30
2023-02-26T16:58:19.785Z,1.90
2023-02-26T17:00:50.528Z,1.20
2023-02-26T17:03:24.067Z,2.17
2023-02-26T17:06:08.187Z,2.33
2023-02-26T17:08:57.124Z,1.40
2023-02-26T17:11:29.822Z,1.57
2023-02-26T17:14:19.206Z,1.30
2023-02-26T17:16:47.293Z,1.70
2023-02-26T17:19:14.123Z,1.87
2023-02-26T17:21:54.498Z,1.40
2023-02-26T17:24:28.923Z,2.40
2023-02-26T17:26:55.642Z,1.90
2023-02-26T17:29:30.907Z,1.83
2023-02-26T17:31:57.857Z,1.80
2023-02-26T17:34:24.664Z,1.73
2023-02-26T17:36:57.140Z,1.40
2023-02-26T17:39:23.947Z,1.50
2023-02-26T17:41:50.829Z,1.30
2023-02-26T17:44:17.789Z,2.77
2023-02-26T17:46:45.561Z,1.57
2023-02-26T17:49:12.928Z,1.70
2023-02-26T17:51:39.666Z,2.30
2023-02-26T17:54:06.370Z,1.30
2023-02-26T17:56:34.952Z,1.10
2023-02-26T17:59:02.108Z,1.40
2023-02-26T18:01:30.015Z,1.30
2023-02-26T18:03:57.540Z,1.37
2023-02-26T18:06:25.278Z,1.80
2023-02-26T18:08:52.362Z,2.07
2023-02-26T18:11:20.457Z,1.60
2023-02-26T18:13:47.417Z,2.00
2023-02-26T18:16:23.095Z,1.70
2023-02-26T18:18:50.743Z,1.30
2023-02-26T18:21:17.600Z,1.70
2023-02-26T18:23:44.404Z,1.80
2023-02-26T18:26:12.085Z,1.67
2023-02-26T18:28:38.913Z,1.97
2023-02-26T18:31:09.115Z,1.63
2023-02-26T18:33:38.594Z,2.10
2023-02-26T18:36:06.125Z,1.90
2023-02-26T18:38:34.509Z,1.57
2023-02-26T18:41:02.224Z,1.80
2023-02-26T18:43:29.782Z,2.07
2023-02-26T18:46:01.211Z,2.13
2023-02-26T18:48:28.781Z,2.00
2023-02-26T18:50:55.893Z,1.93
2023-02-26T18:53:23.809Z,2.60
2023-02-26T18:55:54.474Z,1.90
2023-02-26T18:58:21.796Z,1.83
2023-02-26T19:00:48.601Z,2.40
2023-02-26T19:03:15.587Z,1.90
2023-02-26T19:05:42.482Z,1.97
2023-02-26T19:08:09.973Z,2.00
2023-02-26T19:10:37.303Z,2.20
2023-02-26T19:13:04.467Z,2.03
2023-02-26T19:15:31.415Z,2.00
2023-02-26T19:17:58.207Z,2.20
2023-02-26T19:20:24.948Z,2.67
2023-02-26T19:22:51.800Z,2.50
2023-02-26T19:25:23.857Z,1.80
2023-02-26T19:27:53.591Z,2.17
2023-02-26T19:30:22.200Z,1.90
2023-02-26T19:32:49.565Z,1.87
2023-02-26T19:35:16.584Z,2.07
2023-02-26T19:37:43.445Z,2.00
2023-02-26T19:40:15.223Z,1.83
2023-02-26T19:42:42.774Z,2.23
2023-02-26T19:45:14.128Z,2.20
2023-02-26T19:47:41.435Z,2.40
2023-02-26T19:50:09.449Z,2.40
2023-02-26T19:52:37.360Z,2.00
2023-02-26T19:55:06.758Z,2.33
2023-02-26T19:57:33.768Z,1.80
2023-02-26T20:00:00.587Z,2.10
2023-02-26T20:02:27.467Z,2.73
2023-02-26T20:04:54.210Z,2.40
2023-02-26T20:07:21.387Z,1.60
2023-02-26T20:09:49.456Z,2.17
2023-02-26T20:12:17.807Z,2.40
2023-02-26T20:14:44.484Z,2.50
2023-02-26T20:17:11.211Z,1.97
2023-02-26T20:19:38.017Z,2.10
2023-02-26T20:22:04.800Z,2.10
2023-02-26T20:24:32.912Z,2.33
2023-02-26T20:27:00.293Z,2.10
2023-02-26T20:29:27.154Z,2.20
2023-02-26T20:31:54.217Z,1.97
2023-02-26T20:34:21.400Z,2.00
2023-02-26T20:36:49.927Z,2.17
2023-02-26T20:39:19.424Z,2.00
2023-02-26T20:41:46.052Z,2.13
2023-02-26T20:44:12.798Z,2.17
2023-02-26T20:46:39.610Z,1.90
2023-02-26T20:49:11.413Z,2.17
2023-02-26T20:51:40.219Z,2.20
2023-02-26T20:54:07.280Z,2.17
2023-02-26T20:56:33.996Z,2.50
2023-02-26T20:59:00.654Z,2.03
2023-02-26T21:01:35.217Z,2.90
2023-02-26T21:04:07.213Z,2.33
2023-02-26T21:06:34.365Z,1.97
2023-02-26T21:09:02.380Z,2.23
2023-02-26T21:11:31.130Z,1.80
2023-02-26T21:13:59.135Z,2.20
2023-02-26T21:16:28.327Z,2.13
2023-02-26T21:18:55.804Z,2.10
2023-02-26T21:21:23.096Z,1.90
2023-02-26T21:23:51.305Z,2.00
2023-02-26T21:26:18.050Z,2.30
2023-02-26T21:28:48.648Z,1.97
2023-02-26T21:31:20.177Z,2.33
2023-02-26T21:33:46.841Z,2.20
2023-02-26T21:36:14.435Z,1.90
2023-02-26T21:38:41.936Z,2.50
2023-02-26T21:41:08.609Z,2.33
2023-02-26T21:43:35.309Z,2.80
2023-02-26T21:46:02.105Z,2.20
2023-02-26T21:48:28.801Z,2.30
2023-02-26T21:50:56.593Z,2.20
2023-02-26T21:53:23.980Z,2.23
2023-02-26T21:55:50.706Z,4.30
2023-02-26T21:58:17.371Z,3.20
2023-02-26T22:00:44.819Z,2.30
2023-02-26T22:03:11.546Z,2.67
2023-02-26T22:05:38.273Z,2.20
2023-02-26T22:08:05.045Z,2.40
2023-02-26T22:10:31.757Z,2.40
2023-02-26T22:12:58.468Z,2.20
2023-02-26T22:15:25.253Z,2.50
2023-02-26T22:17:52.075Z,2.37
2023-02-26T22:20:18.858Z,2.27
2023-02-26T22:22:45.578Z,2.47
2023-02-26T22:25:13.211Z,2.50
2023-02-26T22:27:39.891Z,2.50
2023-02-26T22:30:08.055Z,2.47
2023-02-26T22:32:34.956Z,2.77
2023-02-26T22:35:01.629Z,2.50
2023-02-26T22:37:28.272Z,2.50
2023-02-26T22:39:54.993Z,2.57
2023-02-26T22:42:21.638Z,2.60
2023-02-26T22:44:48.365Z,2.60
2023-02-26T22:47:15.023Z,3.23
2023-02-26T22:49:41.899Z,2.77
2023-02-26T22:52:10.520Z,3.13
2023-02-26T22:54:38.848Z,3.00
2023-02-26T22:57:06.222Z,2.77
2023-02-26T22:59:32.944Z,3.20
2023-02-26T23:01:59.635Z,3.00
2023-02-26T23:04:26.624Z,2.87
2023-02-26T23:06:53.358Z,3.20
2023-02-26T23:09:20.357Z,3.07
2023-02-26T23:11:47.117Z,3.60
2023-02-26T23:14:14.131Z,3.77
2023-02-26T23:16:41.089Z,2.80
2023-02-26T23:19:08.250Z,3.63
2023-02-26T23:21:34.914Z,3.13
2023-02-26T23:24:01.695Z,2.93
2023-02-26T23:26:28.532Z,3.13
2023-02-26T23:28:55.208Z,3.07
2023-02-26T23:31:22.221Z,3.20
2023-02-26T23:33:48.911Z,3.30
2023-02-26T23:36:15.839Z,3.23
2023-02-26T23:38:42.496Z,3.50
2023-02-26T23:41:09.558Z,3.47
2023-02-26T23:43:36.240Z,4.33
2023-02-26T23:46:03.004Z,4.30
2023-02-26T23:48:29.717Z,4.50
2023-02-26T23:50:56.452Z,4.23
2023-02-26T23:53:23.327Z,3.90
2023-02-26T23:55:56.897Z,3.97
2023-02-26T23:58:27.920Z,3.90
